Time;durP1;ratioP1;P1;durP2;ratioP2;P2;SDS_P1;SDS_P2;PMS_P1;PMS_P2;Temp;Humidity;BMP_temperature;BMP_pressure;BME280_temperature;BME280_humidity;BME280_pressure;Samples;Min_cycle;Max_cycle;Signal;HPM_P1;HPM_P2
2021/11/26 00:00:23;;;;;;;4.05;1.92;;;19.00;76.70;;;;;;5003982;28;96067;-65
2021/11/26 00:02:53;;;;;;;2.92;1.45;;;19.00;76.50;;;;;;4990433;28;96373;-58
2021/11/26 00:05:27;;;;;;;1.75;1.60;;;19.10;76.40;;;;;;4987032;28;95769;-56
2021/11/26 00:07:59;;;;;;;1.92;1.65;;;19.20;75.70;;;;;;4994689;28;95227;-56
2021/11/26 00:10:30;;;;;;;2.45;1.40;;;19.30;76.20;;;;;;4995635;28;96202;-59
2021/11/26 00:13:04;;;;;;;1.85;1.50;;;19.30;76.10;;;;;;4993562;28;95997;-55
2021/11/26 00:15:38;;;;;;;1.90;1.50;;;19.40;76.10;;;;;;5002758;28;96437;-68
2021/11/26 00:18:20;;;;;;;2.05;1.55;;;19.40;76.00;;;;;;4998831;28;95776;-60
2021/11/26 00:20:55;;;;;;;2.13;1.60;;;19.50;75.90;;;;;;4995087;28;95693;-55
2021/11/26 00:23:28;;;;;;;1.52;1.42;;;19.60;75.90;;;;;;4987044;28;97180;-60
2021/11/26 00:25:59;;;;;;;1.98;1.63;;;19.60;75.80;;;;;;4992119;28;95896;-59
2021/11/26 00:28:31;;;;;;;1.95;1.73;;;19.70;75.70;;;;;;4996043;28;95758;-61
2021/11/26 00:31:03;;;;;;;1.30;1.20;;;19.80;75.80;;;;;;4996763;28;95885;-63
2021/11/26 00:33:33;;;;;;;2.38;1.73;;;19.80;75.60;;;;;;4993698;28;96209;-63
2021/11/26 00:36:04;;;;;;;4.47;1.73;;;19.80;74.90;;;;;;4993472;28;95834;-64
2021/11/26 00:38:37;;;;;;;1.88;1.45;;;19.90;75.50;;;;;;4989173;28;95847;-65
2021/11/26 00:41:08;;;;;;;2.22;1.40;;;20.00;75.40;;;;;;4987557;28;95335;-61
2021/11/26 00:43:38;;;;;;;1.80;1.70;;;20.00;75.40;;;;;;4990745;28;96972;-59
2021/11/26 00:46:09;;;;;;;1.53;1.43;;;20.10;75.30;;;;;;4994839;28;95438;-60
2021/11/26 00:48:47;;;;;;;2.83;1.50;;;20.10;75.30;;;;;;4998760;28;97006;-65
2021/11/26 00:51:18;;;;;;;2.13;1.48;;;20.10;75.20;;;;;;5003213;28;95263;-61
2021/11/26 00:53:54;;;;;;;2.30;1.48;;;20.20;75.20;;;;;;5002239;28;95898;-62
2021/11/26 00:56:29;;;;;;;4.13;2.03;;;20.20;75.10;;;;;;5024488;27;96362;-64
2021/11/26 00:58:59;;;;;;;1.83;1.20;;;20.30;75.00;;;;;;4990465;28;95457;-64
2021/11/26 01:01:29;;;;;;;3.05;1.80;;;20.40;75.10;;;;;;4995011;28;96490;-65
2021/11/26 01:04:00;;;;;;;2.20;1.52;;;20.40;74.90;;;;;;4994431;28;97174;-64
2021/11/26 01:06:34;;;;;;;3.20;1.92;;;20.50;75.00;;;;;;5000466;28;95782;-64
2021/11/26 01:09:04;;;;;;;1.45;1.35;;;20.50;74.90;;;;;;5013165;27;95703;-67
2021/11/26 01:11:35;;;;;;;4.00;1.92;;;20.50;74.80;;;;;;5011851;28;95230;-65
2021/11/26 01:14:05;;;;;;;2.80;1.73;;;20.60;74.70;;;;;;4988012;28;96227;-64
2021/11/26 01:16:36;;;;;;;8.20;3.63;;;20.60;74.60;;;;;;5021045;27;97716;-56
2021/11/26 01:19:09;;;;;;;9.88;4.25;;;20.50;71.80;;;;;;5015941;27;95776;-59
2021/11/26 01:21:40;;;;;;;9.77;3.38;;;20.30;71.90;;;;;;5009898;28;96117;-59
2021/11/26 01:24:12;;;;;;;6.60;3.80;;;20.10;72.20;;;;;;5014568;27;97050;-59
2021/11/26 01:26:45;;;;;;;9.00;3.55;;;20.10;72.20;;;;;;5011050;28;95773;-59
2021/11/26 01:29:18;;;;;;;6.30;3.03;;;20.00;71.50;;;;;;5010588;28;96563;-59
2021/11/26 01:31:49;;;;;;;5.97;3.80;;;19.90;72.20;;;;;;5002752;28;95807;-58
2021/11/26 01:34:20;;;;;;;5.70;3.30;;;19.90;72.20;;;;;;5009386;28;96486;-59
2021/11/26 01:36:53;;;;;;;9.70;4.00;;;19.80;72.20;;;;;;5015610;27;98328;-60
2021/11/26 01:39:28;;;;;;;9.95;3.78;;;19.80;72.10;;;;;;5005624;28;96166;-59
2021/11/26 01:42:01;;;;;;;8.10;3.63;;;19.80;72.10;;;;;;5013136;28;95649;-59
2021/11/26 01:44:31;;;;;;;8.40;4.07;;;19.80;72.10;;;;;;4989843;28;96672;-59
2021/11/26 01:47:03;;;;;;;;;;;19.80;72.00;;;;;;5009073;28;95861;-59
2021/11/26 01:49:36;;;;;;;8.30;3.75;;;19.70;72.00;;;;;;5019821;28;95535;-59
2021/11/26 01:52:10;;;;;;;7.97;3.65;;;19.70;72.10;;;;;;5012370;28;95644;-60
2021/11/26 01:54:42;;;;;;;6.70;3.72;;;19.70;72.00;;;;;;5017505;28;95876;-60
2021/11/26 01:57:16;;;;;;;7.85;3.90;;;19.60;72.10;;;;;;5018701;28;95658;-59
2021/11/26 01:59:51;;;;;;;6.78;3.78;;;19.60;72.10;;;;;;5004042;28;95303;-58
2021/11/26 02:02:23;;;;;;;6.93;4.68;;;19.60;72.20;;;;;;5024617;27;95718;-60
2021/11/26 02:04:54;;;;;;;7.78;4.05;;;19.60;72.30;;;;;;5010138;28;96060;-59
2021/11/26 02:07:31;;;;;;;8.13;4.47;;;19.60;72.30;;;;;;5019002;28;95736;-60
2021/11/26 02:10:23;;;;;;;8.00;4.03;;;19.60;72.20;;;;;;4929495;28;98042;-59
2021/11/26 02:12:54;;;;;;;12.48;4.65;;;19.60;72.00;;;;;;4932205;28;95992;-63
2021/11/26 02:15:31;;;;;;;7.97;3.58;;;19.60;72.50;;;;;;4987604;28;96590;-59
2021/11/26 02:18:04;;;;;;;10.98;4.55;;;19.60;72.40;;;;;;5012126;28;96771;-61
2021/11/26 02:20:35;;;;;;;5.68;3.17;;;19.60;72.70;;;;;;5014565;28;95204;-68
2021/11/26 02:23:07;;;;;;;7.15;4.10;;;19.60;72.60;;;;;;5019608;27;95998;-56
2021/11/26 02:25:41;;;;;;;8.60;3.42;;;19.70;72.20;;;;;;5017111;28;96665;-61
2021/11/26 02:28:15;;;;;;;8.43;3.63;;;19.80;72.90;;;;;;5014902;28;96805;-57
2021/11/26 02:30:47;;;;;;;6.95;4.25;;;20.00;72.90;;;;;;5020104;28;95470;-56
2021/11/26 02:33:21;;;;;;;5.05;3.10;;;20.10;72.80;;;;;;5016865;28;95239;-60
2021/11/26 02:35:54;;;;;;;5.70;3.15;;;20.20;72.80;;;;;;4995349;27;98257;-60
2021/11/26 02:38:29;;;;;;;6.28;3.58;;;20.20;72.70;;;;;;4998742;28;95503;-59
2021/11/26 02:41:04;;;;;;;3.70;3.13;;;20.30;72.70;;;;;;5013870;28;95740;-61
2021/11/26 02:43:36;;;;;;;6.00;3.10;;;20.40;72.80;;;;;;5018703;28;95824;-59
2021/11/26 02:46:10;;;;;;;6.05;3.22;;;20.50;72.90;;;;;;5023351;28;96251;-60
2021/11/26 02:48:44;;;;;;;5.47;3.47;;;20.50;72.80;;;;;;5023071;28;95789;-55
2021/11/26 02:51:16;;;;;;;4.50;2.97;;;20.60;72.90;;;;;;5022898;28;95991;-53
2021/11/26 02:53:50;;;;;;;6.57;3.33;;;20.60;72.80;;;;;;5018003;28;95589;-58
2021/11/26 02:56:21;;;;;;;4.95;3.30;;;20.70;72.90;;;;;;5023167;28;96809;-55
2021/11/26 02:58:51;;;;;;;4.78;2.97;;;20.80;72.80;;;;;;5022734;27;95936;-59
2021/11/26 03:01:22;;;;;;;5.05;3.30;;;20.80;72.70;;;;;;5022631;28;95481;-65
2021/11/26 03:03:54;;;;;;;3.83;2.60;;;20.90;72.80;;;;;;5007857;28;95921;-62
2021/11/26 03:06:25;;;;;;;6.60;3.47;;;20.90;72.70;;;;;;5020741;28;96101;-62
2021/11/26 03:08:56;;;;;;;3.42;2.60;;;21.00;72.80;;;;;;5009400;27;95450;-63
2021/11/26 03:11:29;;;;;;;4.28;2.92;;;21.00;72.70;;;;;;4990435;28;95544;-69
2021/11/26 03:14:00;;;;;;;2.97;2.15;;;21.10;72.70;;;;;;5016070;28;95881;-59
2021/11/26 03:16:32;;;;;;;4.82;2.95;;;21.10;72.70;;;;;;5017900;28;96031;-59
2021/11/26 03:19:07;;;;;;;5.20;3.03;;;21.20;72.70;;;;;;5001851;28;96454;-57
2021/11/26 03:21:41;;;;;;;4.78;2.50;;;21.20;72.70;;;;;;5032063;27;95653;-58
2021/11/26 03:24:16;;;;;;;5.57;3.08;;;21.30;72.80;;;;;;5018576;28;95336;-60
2021/11/26 03:26:50;;;;;;;4.18;2.47;;;21.30;72.70;;;;;;5007061;28;98210;-58
2021/11/26 03:29:22;;;;;;;7.55;3.45;;;21.40;72.70;;;;;;5011484;28;96952;-57
2021/11/26 03:31:58;;;;;;;9.05;3.65;;;21.30;70.40;;;;;;5011677;27;95832;-56
2021/11/26 03:34:28;;;;;;;6.28;3.90;;;21.10;70.50;;;;;;5013193;27;95712;-58
2021/11/26 03:37:01;;;;;;;5.50;3.28;;;20.90;70.80;;;;;;5009619;27;96627;-58
2021/11/26 03:39:32;;;;;;;9.35;3.38;;;20.80;70.60;;;;;;5026372;27;97190;-57
2021/11/26 03:42:03;;;;;;;6.63;3.53;;;20.80;71.50;;;;;;5017538;28;96067;-55
2021/11/26 03:44:36;;;;;;;5.88;3.53;;;20.90;71.70;;;;;;5007432;28;95954;-57
2021/11/26 03:47:08;;;;;;;5.07;3.17;;;21.10;71.60;;;;;;5011403;28;95993;-61
2021/11/26 03:49:40;;;;;;;6.60;3.60;;;21.20;71.50;;;;;;5015519;28;96690;-62
2021/11/26 03:52:16;;;;;;;9.90;3.50;;;21.30;71.40;;;;;;5015260;28;95551;-57
2021/11/26 03:54:47;;;;;;;8.00;3.13;;;21.40;70.80;;;;;;5016686;28;95401;-61
2021/11/26 03:57:18;;;;;;;7.43;3.22;;;21.40;70.70;;;;;;5014543;28;96200;-61
2021/11/26 03:59:51;;;;;;;5.78;2.70;;;21.40;70.90;;;;;;5009388;28;95584;-57
2021/11/26 04:02:23;;;;;;;9.60;3.08;;;21.50;69.70;;;;;;5011395;27;95789;-58
2021/11/26 04:04:54;;;;;;;11.15;3.10;;;21.50;70.00;;;;;;5015717;28;95948;-58
2021/11/26 04:07:24;;;;;;;9.07;3.00;;;21.60;69.70;;;;;;5012620;28;97009;-58
2021/11/26 04:09:56;;;;;;;6.32;2.85;;;21.50;68.50;;;;;;5018677;28;95402;-59
2021/11/26 04:12:28;;;;;;;9.23;3.13;;;21.50;69.00;;;;;;5015783;28;95867;-56
2021/11/26 04:15:00;;;;;;;7.90;2.40;;;21.50;67.90;;;;;;5014040;28;95404;-57
2021/11/26 04:17:34;;;;;;;11.18;3.42;;;21.50;68.20;;;;;;4987944;28;96561;-59
2021/11/26 04:20:08;;;;;;;9.75;2.58;;;21.40;66.90;;;;;;5012905;28;95792;-57
2021/11/26 04:22:42;;;;;;;9.68;3.08;;;21.50;67.70;;;;;;5013838;28;95775;-56
2021/11/26 04:25:17;;;;;;;5.32;3.17;;;21.40;66.00;;;;;;5018750;28;95499;-62
2021/11/26 04:27:53;;;;;;;11.38;3.80;;;21.30;66.00;;;;;;5012065;28;96298;-59
2021/11/26 04:30:28;;;;;;;6.25;3.28;;;21.30;66.20;;;;;;4994917;28;95757;-57
2021/11/26 04:33:01;;;;;;;5.85;3.78;;;21.30;67.30;;;;;;4986111;28;95779;-58
2021/11/26 04:35:32;;;;;;;7.50;3.65;;;21.40;65.80;;;;;;5010228;27;98680;-55
2021/11/26 04:38:04;;;;;;;8.23;4.00;;;21.30;65.40;;;;;;5015712;27;96827;-56
2021/11/26 04:40:34;;;;;;;8.80;4.13;;;21.10;65.10;;;;;;5014080;28;95752;-55
2021/11/26 04:43:07;;;;;;;7.57;3.92;;;21.00;65.60;;;;;;5013839;28;95297;-55
2021/11/26 04:45:39;;;;;;;6.45;4.22;;;21.00;66.00;;;;;;5009807;28;96089;-58
2021/11/26 04:48:13;;;;;;;8.57;4.13;;;20.90;65.70;;;;;;4998862;28;98589;-56
2021/11/26 04:50:47;;;;;;;8.70;4.80;;;21.00;66.70;;;;;;5001929;28;96457;-57
2021/11/26 04:53:20;;;;;;;6.03;4.18;;;20.90;66.00;;;;;;4993325;28;96029;-54
2021/11/26 04:55:52;;;;;;;10.02;4.90;;;21.00;65.60;;;;;;5011262;28;95687;-57
2021/11/26 04:58:25;;;;;;;8.32;5.25;;;21.10;65.70;;;;;;5012225;27;96595;-60
2021/11/26 05:00:59;;;;;;;5.40;4.53;;;21.10;66.00;;;;;;5015316;28;95813;-56
2021/11/26 05:03:32;;;;;;;8.13;3.67;;;21.20;66.70;;;;;;5012240;28;95734;-60
2021/11/26 05:06:02;;;;;;;9.63;4.97;;;21.30;66.60;;;;;;5008196;28;97044;-58
2021/11/26 05:08:33;;;;;;;11.43;5.13;;;21.40;64.60;;;;;;5006134;28;96681;-64
2021/11/26 05:11:05;;;;;;;9.38;5.03;;;21.20;64.50;;;;;;5002484;28;97518;-62
2021/11/26 05:13:43;;;;;;;9.23;4.97;;;21.10;65.10;;;;;;5014580;28;95845;-58
2021/11/26 05:16:15;;;;;;;8.88;4.93;;;21.00;65.20;;;;;;5011560;28;96000;-64
2021/11/26 05:18:47;;;;;;;9.65;4.95;;;20.90;64.80;;;;;;5017850;28;96388;-62
2021/11/26 05:21:19;;;;;;;11.13;5.60;;;20.80;64.50;;;;;;5020766;27;96071;-57
2021/11/26 05:23:51;;;;;;;8.18;4.90;;;20.80;65.40;;;;;;4991815;28;95924;-64
2021/11/26 05:26:22;;;;;;;14.75;5.25;;;20.80;65.20;;;;;;5019914;28;95417;-60
2021/11/26 05:28:55;;;;;;;10.13;4.53;;;20.80;64.20;;;;;;5015521;28;96561;-66
2021/11/26 05:31:26;;;;;;;9.93;4.93;;;20.80;64.90;;;;;;5011377;28;95913;-66
2021/11/26 05:34:08;;;;;;;11.05;4.70;;;20.70;65.00;;;;;;5018186;28;95922;-65
2021/11/26 05:36:39;;;;;;;12.38;5.65;;;20.60;65.00;;;;;;5024549;27;96069;-66
2021/11/26 05:39:14;;;;;;;9.73;5.60;;;20.40;64.10;;;;;;5017088;27;96779;-66
2021/11/26 05:41:44;;;;;;;11.48;5.25;;;20.30;63.90;;;;;;5017899;28;95735;-66
2021/11/26 05:44:15;;;;;;;17.03;6.70;;;20.20;64.20;;;;;;5017354;27;95622;-66
2021/11/26 05:46:47;;;;;;;18.10;5.90;;;20.10;64.40;;;;;;5008117;27;96788;-66
2021/11/26 05:49:22;;;;;;;16.20;6.03;;;20.10;63.70;;;;;;5016386;28;96070;-66
2021/11/26 05:51:56;;;;;;;18.60;6.82;;;20.00;64.90;;;;;;5023589;28;95923;-66
2021/11/26 05:54:27;;;;;;;16.98;6.07;;;19.90;64.80;;;;;;5013911;28;95830;-66
2021/11/26 05:56:58;;;;;;;17.63;5.88;;;19.80;63.90;;;;;;5020146;28;95797;-66
2021/11/26 05:59:29;;;;;;;14.75;6.35;;;19.60;63.80;;;;;;5001961;28;96091;-66
2021/11/26 06:02:00;;;;;;;11.57;5.57;;;19.60;64.80;;;;;;5009245;28;95752;-67
2021/11/26 06:04:36;;;;;;;15.80;5.95;;;19.50;64.80;;;;;;5014349;28;95584;-66
2021/11/26 06:07:07;;;;;;;13.63;5.18;;;19.60;65.10;;;;;;5015197;28;95647;-66
2021/11/26 06:09:38;;;;;;;;;;;19.70;65.30;;;;;;5011963;28;96380;-66
2021/11/26 06:12:09;;;;;;;13.10;4.82;;;19.50;63.90;;;;;;5009812;28;96199;-66
2021/11/26 06:14:39;;;;;;;14.40;4.50;;;19.50;65.40;;;;;;4991133;28;96038;-65
2021/11/26 06:17:10;;;;;;;12.90;4.65;;;19.50;65.00;;;;;;5011777;28;95661;-66
2021/11/26 06:19:42;;;;;;;9.77;4.18;;;19.40;65.40;;;;;;5009949;28;97055;-67
2021/11/26 06:22:13;;;;;;;10.20;4.68;;;19.40;64.90;;;;;;5028193;27;95966;-66
2021/11/26 06:24:45;;;;;;;10.32;3.83;;;19.30;64.40;;;;;;5019272;28;95386;-67
2021/11/26 06:27:16;;;;;;;16.02;5.30;;;19.30;66.20;;;;;;5009913;27;95602;-65
2021/11/26 06:29:48;;;;;;;19.23;6.45;;;19.20;65.50;;;;;;5006827;28;98253;-66
2021/11/26 06:32:23;;;;;;;20.05;9.23;;;19.10;65.10;;;;;;5010775;28;95952;-66
2021/11/26 06:34:56;;;;;;;22.95;10.50;;;19.10;65.20;;;;;;5015193;27;95715;-66
2021/11/26 06:37:28;;;;;;;13.95;5.40;;;19.10;65.30;;;;;;5013411;27;96087;-67
2021/11/26 06:40:00;;;;;;;11.45;4.68;;;19.20;65.60;;;;;;5021132;27;96870;-67
2021/11/26 06:42:33;;;;;;;13.65;4.57;;;19.30;64.70;;;;;;5014892;28;95745;-65
2021/11/26 06:45:05;;;;;;;15.75;4.45;;;19.30;64.50;;;;;;5016672;27;95854;-67
2021/11/26 06:47:36;;;;;;;17.98;4.90;;;19.40;64.60;;;;;;5009990;27;96071;-66
2021/11/26 06:50:10;;;;;;;15.73;5.00;;;19.20;63.70;;;;;;5017994;28;96069;-66
2021/11/26 06:52:45;;;;;;;13.98;4.47;;;19.20;64.40;;;;;;5025478;28;96293;-66
2021/11/26 06:55:16;;;;;;;11.82;3.80;;;19.10;63.70;;;;;;5014536;28;95915;-66
2021/11/26 06:57:49;;;;;;;14.20;4.05;;;19.00;64.20;;;;;;5020226;28;97048;-66
2021/11/26 07:00:21;;;;;;;10.68;3.75;;;18.90;64.60;;;;;;5028015;27;96964;-66
2021/11/26 07:02:53;;;;;;;9.63;3.55;;;18.90;64.30;;;;;;5015751;28;96281;-66
2021/11/26 07:05:25;;;;;;;11.52;3.15;;;18.90;64.20;;;;;;4997789;28;95894;-66
2021/11/26 07:07:57;;;;;;;15.20;4.03;;;18.90;64.30;;;;;;5010066;28;95857;-67
2021/11/26 07:10:27;;;;;;;11.95;4.05;;;18.70;63.10;;;;;;5009564;28;96415;-66
2021/11/26 07:12:58;;;;;;;10.93;4.03;;;18.70;63.70;;;;;;5019580;28;95813;-67
2021/11/26 07:15:29;;;;;;;12.77;3.38;;;18.60;63.30;;;;;;5011280;28;96120;-67
2021/11/26 07:18:03;;;;;;;13.25;3.42;;;18.60;63.70;;;;;;5012849;28;95895;-65
2021/11/26 07:20:34;;;;;;;12.75;4.03;;;18.60;63.30;;;;;;5012671;28;96658;-66
2021/11/26 07:23:06;;;;;;;17.77;3.90;;;18.60;63.80;;;;;;5020787;28;95678;-65
2021/11/26 07:25:40;;;;;;;12.95;3.78;;;18.40;63.50;;;;;;5010958;28;95864;-66
2021/11/26 07:28:12;;;;;;;15.75;3.92;;;18.30;64.20;;;;;;5000597;28;95751;-66
2021/11/26 07:30:45;;;;;;;12.18;3.40;;;18.20;65.10;;;;;;5010217;28;96010;-65
2021/11/26 07:33:15;;;;;;;17.10;3.30;;;18.20;64.90;;;;;;5013085;28;95432;-66
2021/11/26 07:35:47;;;;;;;16.55;4.28;;;18.20;65.10;;;;;;5008528;27;95367;-66
2021/11/26 07:38:18;;;;;;;11.05;4.07;;;18.20;64.10;;;;;;5003295;27;96255;-66
2021/11/26 07:40:50;;;;;;;15.75;4.15;;;18.30;65.20;;;;;;5012068;28;98383;-67
2021/11/26 07:43:21;;;;;;;15.68;3.67;;;18.20;64.90;;;;;;5020850;27;95644;-67
2021/11/26 07:45:52;;;;;;;;;;;18.10;64.60;;;;;;5021385;27;95837;-67
2021/11/26 07:48:25;;;;;;;16.77;4.07;;;18.00;65.20;;;;;;5019644;28;95839;-67
2021/11/26 07:50:56;;;;;;;17.05;3.67;;;18.00;66.00;;;;;;5017685;28;97500;-67
2021/11/26 07:53:29;;;;;;;14.65;3.90;;;17.90;65.90;;;;;;5012964;28;95861;-66
2021/11/26 07:56:01;;;;;;;15.15;3.90;;;17.90;66.00;;;;;;5013838;28;95860;-65
2021/11/26 07:58:32;;;;;;;18.15;4.65;;;18.00;66.30;;;;;;5003411;28;95292;-66
2021/11/26 08:01:06;;;;;;;;;;;18.00;65.60;;;;;;5019654;28;96064;-66
2021/11/26 08:03:38;;;;;;;18.73;5.50;;;18.00;65.80;;;;;;5017251;27;97457;-66
2021/11/26 08:06:08;;;;;;;22.73;4.63;;;18.00;65.40;;;;;;5020430;28;95804;-66
2021/11/26 08:08:42;;;;;;;10.57;3.42;;;17.90;66.00;;;;;;5017964;28;95609;-67
2021/11/26 08:11:12;;;;;;;23.20;4.03;;;17.80;65.90;;;;;;5010334;28;96255;-66
2021/11/26 08:13:45;;;;;;;16.53;4.33;;;17.70;66.00;;;;;;5012354;27;95918;-66
2021/11/26 08:16:19;;;;;;;12.18;4.60;;;17.60;65.80;;;;;;5016212;28;95696;-66
2021/11/26 08:18:50;;;;;;;8.73;3.20;;;17.70;66.40;;;;;;5019592;28;95801;-65
2021/11/26 08:21:23;;;;;;;10.93;3.40;;;17.70;66.20;;;;;;5015407;28;96543;-65
2021/11/26 08:23:54;;;;;;;12.80;3.63;;;17.70;66.60;;;;;;5014592;28;95858;-66
2021/11/26 08:26:26;;;;;;;16.70;3.88;;;17.60;66.30;;;;;;5013979;28;97869;-66
2021/11/26 08:28:58;;;;;;;10.98;3.85;;;17.60;66.60;;;;;;5016487;28;95946;-66
2021/11/26 08:31:29;;;;;;;14.77;3.90;;;17.60;66.80;;;;;;5020338;27;96590;-66
2021/11/26 08:34:00;;;;;;;20.60;3.95;;;17.60;66.60;;;;;;5010715;28;95732;-65
2021/11/26 08:36:32;;;;;;;9.75;2.60;;;17.60;66.50;;;;;;5028986;27;95800;-65
2021/11/26 08:39:03;;;;;;;;;;;17.40;66.70;;;;;;5015488;27;95760;-64
2021/11/26 08:41:34;;;;;;;15.40;3.78;;;17.40;67.50;;;;;;5027931;28;96023;-65
2021/11/26 08:44:05;;;;;;;9.00;3.33;;;17.40;67.70;;;;;;5009698;28;95915;-65
2021/11/26 08:46:35;;;;;;;9.13;3.43;;;17.40;67.50;;;;;;5015036;28;95958;-64
2021/11/26 08:49:07;;;;;;;15.00;3.10;;;17.40;67.70;;;;;;5020310;28;95844;-65
2021/11/26 08:51:40;;;;;;;7.85;2.97;;;17.30;67.70;;;;;;5017693;28;96019;-65
2021/11/26 08:54:12;;;;;;;16.35;4.80;;;17.30;67.70;;;;;;5017366;28;95560;-65
2021/11/26 08:56:45;;;;;;;13.65;3.58;;;17.30;67.90;;;;;;5019794;28;95845;-64
2021/11/26 08:59:16;;;;;;;14.23;2.88;;;17.20;67.30;;;;;;5014559;27;95307;-65
2021/11/26 09:01:50;;;;;;;12.32;2.97;;;17.10;67.40;;;;;;4999922;28;98718;-64
2021/11/26 09:04:24;;;;;;;10.75;3.25;;;17.00;68.20;;;;;;5022824;28;95391;-65
2021/11/26 09:06:55;;;;;;;13.95;3.25;;;17.00;68.30;;;;;;5023408;28;95674;-65
2021/11/26 09:09:25;;;;;;;12.63;3.60;;;17.00;68.00;;;;;;5028986;27;95823;-65
2021/11/26 09:11:56;;;;;;;11.95;3.10;;;16.90;68.40;;;;;;5020275;28;95891;-66
2021/11/26 09:14:27;;;;;;;13.63;3.40;;;16.90;67.00;;;;;;5019829;28;95807;-66
2021/11/26 09:16:58;;;;;;;13.57;2.95;;;16.70;67.70;;;;;;5018574;28;95664;-66
2021/11/26 09:19:31;;;;;;;11.88;2.88;;;16.70;68.30;;;;;;5022183;27;96933;-61
2021/11/26 09:22:03;;;;;;;14.02;3.25;;;16.70;68.50;;;;;;5033313;27;97071;-66
2021/11/26 09:24:34;;;;;;;12.80;2.60;;;16.70;68.90;;;;;;5025633;28;95716;-66
2021/11/26 09:27:09;;;;;;;11.32;2.78;;;16.80;69.10;;;;;;5020053;28;95814;-55
2021/11/26 09:29:45;;;;;;;6.45;2.83;;;16.90;69.10;;;;;;5022740;28;95693;-61
2021/11/26 09:32:17;;;;;;;6.03;1.83;;;17.00;69.00;;;;;;5014046;28;97706;-66
2021/11/26 09:34:49;;;;;;;12.00;3.63;;;17.10;68.90;;;;;;5016494;27;95986;-60
2021/11/26 09:37:20;;;;;;;6.15;2.35;;;17.10;68.80;;;;;;5041476;27;97438;-61
2021/11/26 09:39:53;;;;;;;9.93;2.58;;;17.20;68.40;;;;;;5025657;27;96285;-65
2021/11/26 09:42:24;;;;;;;8.57;2.28;;;17.30;68.80;;;;;;5026447;28;96412;-63
2021/11/26 09:44:57;;;;;;;8.20;2.80;;;17.10;67.60;;;;;;5013546;27;95935;-61
2021/11/26 09:47:28;;;;;;;8.43;2.53;;;17.20;68.10;;;;;;5022341;28;95100;-64
2021/11/26 09:49:59;;;;;;;8.35;2.72;;;17.20;68.10;;;;;;5014262;28;98028;-66
2021/11/26 09:52:31;;;;;;;6.85;2.10;;;17.30;68.50;;;;;;5017911;28;97100;-64
2021/11/26 09:55:02;;;;;;;10.43;2.20;;;17.30;68.00;;;;;;5019092;27;95739;-67
2021/11/26 09:57:32;;;;;;;9.30;2.15;;;17.40;68.20;;;;;;5017668;27;95833;-64
2021/11/26 10:00:06;;;;;;;9.73;2.15;;;17.50;67.80;;;;;;5007223;28;96001;-59
2021/11/26 10:02:38;;;;;;;6.45;2.25;;;17.50;67.60;;;;;;5017545;28;95252;-63
2021/11/26 10:05:09;;;;;;;11.73;3.17;;;17.60;67.90;;;;;;5024882;27;95832;-55
2021/11/26 10:07:55;;;;;;;7.40;2.78;;;17.70;67.80;;;;;;5005456;28;95785;-49
2021/11/26 10:10:29;;;;;;;6.55;2.38;;;17.60;67.50;;;;;;5019750;28;96178;-54
2021/11/26 10:13:10;;;;;;;13.70;2.83;;;17.60;67.10;;;;;;5013816;28;95903;-54
2021/11/26 10:15:54;;;;;;;11.63;2.22;;;17.50;65.90;;;;;;5018910;28;95839;-49
2021/11/26 10:18:27;;;;;;;12.38;1.70;;;17.40;66.70;;;;;;5019763;28;95197;-53
2021/11/26 10:21:09;;;;;;;10.05;2.15;;;17.50;66.80;;;;;;5016147;27;97265;-45
2021/11/26 10:23:46;;;;;;;8.95;2.60;;;17.60;67.60;;;;;;5010028;28;96651;-52
2021/11/26 10:26:36;;;;;;;9.18;2.28;;;17.70;67.20;;;;;;5007920;28;95819;-56
2021/11/26 10:29:07;;;;;;;7.88;1.85;;;17.70;66.70;;;;;;5019753;27;95508;-58
2021/11/26 10:31:41;;;;;;;8.02;2.40;;;17.70;66.70;;;;;;5009883;28;95745;-56
2021/11/26 10:34:32;;;;;;;11.10;2.58;;;17.80;66.70;;;;;;5024494;28;96351;-55
2021/11/26 10:37:04;;;;;;;11.07;2.20;;;17.70;66.40;;;;;;5020873;27;95906;-62
2021/11/26 10:39:35;;;;;;;8.95;2.20;;;17.80;66.60;;;;;;5019008;27;96485;-54
2021/11/26 10:42:05;;;;;;;13.82;3.10;;;17.90;66.50;;;;;;5012976;28;96209;-55
2021/11/26 10:44:47;;;;;;;9.15;2.60;;;17.90;66.40;;;;;;5022964;27;96120;-53
2021/11/26 10:47:35;;;;;;;6.05;1.80;;;18.00;66.30;;;;;;5021231;28;95605;-57
2021/11/26 10:58:59;;;;;;;6.78;2.13;;;18.00;66.10;;;;;;5011376;28;95972;-56
2021/11/26 11:01:43;;;;;;;7.35;2.15;;;18.00;65.50;;;;;;4992996;28;95739;-54
2021/11/26 11:04:42;;;;;;;11.75;3.45;;;18.00;64.90;;;;;;5017601;28;96065;-51
2021/11/26 11:07:44;;;;;;;5.00;1.70;;;17.70;65.80;;;;;;5002510;28;95986;-57
2021/11/26 11:10:27;;;;;;;9.73;2.30;;;17.80;66.60;;;;;;5008072;28;96318;-55
2021/11/26 11:13:12;;;;;;;9.00;2.47;;;17.90;65.90;;;;;;5011135;28;95877;-56
2021/11/26 11:15:45;;;;;;;7.30;1.95;;;17.90;66.20;;;;;;5022843;27;95706;-55
2021/11/26 11:18:19;;;;;;;11.13;2.50;;;18.00;66.20;;;;;;5017986;28;96579;-53
2021/11/26 11:20:58;;;;;;;8.88;2.95;;;17.90;65.00;;;;;;5013136;28;95700;-56
2021/11/26 11:23:30;;;;;;;8.10;2.20;;;17.90;66.10;;;;;;5008334;28;95704;-54
2021/11/26 11:26:05;;;;;;;9.88;1.85;;;18.00;65.60;;;;;;5011297;28;97606;-56
2021/11/26 11:28:38;;;;;;;7.13;2.13;;;18.00;65.70;;;;;;5010333;28;96781;-57
2021/11/26 11:31:09;;;;;;;7.32;2.17;;;17.90;65.40;;;;;;5007593;28;97671;-56
2021/11/26 11:33:42;;;;;;;8.82;2.45;;;17.90;65.20;;;;;;5010076;28;95710;-54
2021/11/26 11:36:15;;;;;;;7.55;2.20;;;18.00;65.90;;;;;;5010260;27;95625;-60
2021/11/26 11:38:56;;;;;;;6.13;3.10;;;17.90;65.70;;;;;;5014917;27;96370;-56
2021/11/26 11:41:26;;;;;;;11.05;2.38;;;18.00;65.50;;;;;;4992156;28;97616;-53
2021/11/26 11:43:56;;;;;;;5.60;1.90;;;18.00;65.60;;;;;;5013518;28;95656;-56
2021/11/26 11:46:35;;;;;;;6.60;2.38;;;18.10;65.70;;;;;;5006713;28;95846;-58
2021/11/26 11:49:08;;;;;;;6.72;2.15;;;18.10;65.60;;;;;;5009387;28;96620;-54
2021/11/26 11:51:48;;;;;;;8.82;2.45;;;18.00;65.20;;;;;;5013577;28;95960;-53
2021/11/26 11:54:20;;;;;;;9.07;1.90;;;18.10;65.40;;;;;;5013903;28;95767;-49
2021/11/26 11:56:53;;;;;;;10.70;2.63;;;18.00;65.20;;;;;;5008458;28;97706;-46
2021/11/26 11:59:33;;;;;;;10.27;2.50;;;18.10;65.50;;;;;;5009093;27;96449;-48
2021/11/26 12:02:07;;;;;;;11.63;2.70;;;18.10;65.20;;;;;;5010842;28;96519;-49
2021/11/26 12:04:45;;;;;;;11.57;2.38;;;18.20;65.00;;;;;;5009296;28;96049;-51
2021/11/26 12:07:31;;;;;;;7.78;1.80;;;18.20;64.90;;;;;;5012773;28;95877;-50
2021/11/26 12:10:12;;;;;;;7.45;1.95;;;18.30;64.30;;;;;;5008775;28;95939;-51
2021/11/26 12:12:53;;;;;;;9.75;2.55;;;18.30;64.60;;;;;;5004897;28;96234;-58
2021/11/26 12:15:32;;;;;;;7.57;2.40;;;18.20;64.80;;;;;;5014453;27;96068;-55
2021/11/26 12:18:06;;;;;;;7.22;2.15;;;18.20;65.00;;;;;;5013623;28;95798;-55
2021/11/26 12:20:42;;;;;;;8.10;2.55;;;18.20;65.10;;;;;;5007586;28;96794;-53
2021/11/26 12:23:26;;;;;;;6.78;2.13;;;18.20;64.90;;;;;;5007387;28;95799;-53
2021/11/26 12:26:18;;;;;;;9.52;2.20;;;18.20;64.50;;;;;;5014803;28;95917;-54
2021/11/26 12:28:58;;;;;;;11.50;2.42;;;18.20;64.80;;;;;;5002830;28;96211;-54
2021/11/26 12:31:36;;;;;;;6.15;1.90;;;18.10;63.40;;;;;;5010926;28;96100;-50
2021/11/26 12:34:25;;;;;;;13.27;3.10;;;17.70;64.30;;;;;;5012367;28;95823;-53
2021/11/26 12:36:56;;;;;;;6.70;2.35;;;17.70;65.60;;;;;;5009426;27;95703;-55
2021/11/26 12:39:33;;;;;;;7.13;2.33;;;17.70;66.00;;;;;;5007822;27;95792;-55
2021/11/26 12:42:07;;;;;;;7.80;2.22;;;17.90;65.50;;;;;;5012286;28;95721;-49
2021/11/26 12:44:38;;;;;;;6.30;1.88;;;18.00;65.40;;;;;;5022251;27;96110;-56
2021/11/26 12:47:14;;;;;;;13.00;2.60;;;18.10;65.70;;;;;;5016584;28;95432;-55
2021/11/26 12:52:24;;;;;;;12.35;3.47;;;18.10;65.40;;;;;;5014834;27;96093;-55
2021/11/26 12:54:55;;;;;;;8.00;2.05;;;17.80;63.50;;;;;;5008819;28;96441;-53
2021/11/26 12:57:32;;;;;;;5.70;2.00;;;17.50;64.90;;;;;;5017418;27;95738;-55
2021/11/26 13:00:07;;;;;;;8.07;2.58;;;17.20;66.10;;;;;;5003798;28;95792;-55
2021/11/26 13:02:40;;;;;;;11.80;2.55;;;17.00;66.60;;;;;;5020171;28;96762;-53
2021/11/26 13:05:21;;;;;;;7.53;2.17;;;16.80;66.60;;;;;;5018397;28;95811;-55
2021/11/26 13:07:53;;;;;;;12.48;2.35;;;16.80;67.30;;;;;;5015082;28;95726;-55
2021/11/26 13:10:26;;;;;;;10.43;2.50;;;16.80;68.20;;;;;;5014561;27;95734;-54
2021/11/26 13:12:59;;;;;;;8.63;2.20;;;16.90;68.80;;;;;;5011771;27;96744;-57
2021/11/26 13:15:36;;;;;;;10.05;2.15;;;17.10;68.50;;;;;;5000119;28;96187;-58
2021/11/26 13:18:22;;;;;;;14.02;2.25;;;17.20;69.00;;;;;;5021032;28;96060;-62
2021/11/26 13:21:04;;;;;;;9.77;2.45;;;17.30;68.60;;;;;;4996273;28;96212;-59
2021/11/26 13:23:39;;;;;;;7.20;2.33;;;17.50;68.40;;;;;;5010688;28;95893;-60
2021/11/26 13:26:12;;;;;;;9.00;2.08;;;17.60;68.20;;;;;;5021379;28;95908;-60